sensor_id;sensor_type;location;lat;lon;timestamp;temperature;humidity
47590;DHT22;33316;52.298;9.056;2023-02-13T00:02:10;9.00;92.20
47590;DHT22;33316;52.298;9.056;2023-02-13T00:04:37;9.00;92.60
47590;DHT22;33316;52.298;9.056;2023-02-13T00:07:03;9.00;92.20
47590;DHT22;33316;52.298;9.056;2023-02-13T00:09:35;9.00;92.20
47590;DHT22;33316;52.298;9.056;2023-02-13T00:12:07;9.00;92.20
47590;DHT22;33316;52.298;9.056;2023-02-13T00:14:38;9.00;92.20
47590;DHT22;33316;52.298;9.056;2023-02-13T00:17:06;9.00;92.20
47590;DHT22;33316;52.298;9.056;2023-02-13T00:19:32;8.90;92.10
47590;DHT22;33316;52.298;9.056;2023-02-13T00:22:03;8.90;92.20
47590;DHT22;33316;52.298;9.056;2023-02-13T00:24:29;8.90;92.20
47590;DHT22;33316;52.298;9.056;2023-02-13T00:29:42;8.90;92.20
47590;DHT22;33316;52.298;9.056;2023-02-13T00:32:09;8.90;92.20
47590;DHT22;33316;52.298;9.056;2023-02-13T00:34:35;8.90;92.20
47590;DHT22;33316;52.298;9.056;2023-02-13T00:37:02;8.90;92.10
47590;DHT22;33316;52.298;9.056;2023-02-13T00:39:29;8.90;92.10
47590;DHT22;33316;52.298;9.056;2023-02-13T00:42:11;8.90;92.10
47590;DHT22;33316;52.298;9.056;2023-02-13T00:44:37;8.90;92.10
47590;DHT22;33316;52.298;9.056;2023-02-13T00:47:04;9.00;92.10
47590;DHT22;33316;52.298;9.056;2023-02-13T00:49:31;9.00;92.10
47590;DHT22;33316;52.298;9.056;2023-02-13T00:51:59;8.90;92.10
47590;DHT22;33316;52.298;9.056;2023-02-13T00:54:29;8.90;92.10
47590;DHT22;33316;52.298;9.056;2023-02-13T00:56:58;9.00;92.50
47590;DHT22;33316;52.298;9.056;2023-02-13T00:59:29;9.00;92.10
47590;DHT22;33316;52.298;9.056;2023-02-13T01:01:56;9.00;92.10
47590;DHT22;33316;52.298;9.056;2023-02-13T01:04:36;9.00;92.10
47590;DHT22;33316;52.298;9.056;2023-02-13T01:07:03;9.00;92.00
47590;DHT22;33316;52.298;9.056;2023-02-13T01:09:30;9.00;92.00
47590;DHT22;33316;52.298;9.056;2023-02-13T01:12:02;9.00;92.00
47590;DHT22;33316;52.298;9.056;2023-02-13T01:14:30;9.00;92.00
47590;DHT22;33316;52.298;9.056;2023-02-13T01:16:59;9.00;92.00
47590;DHT22;33316;52.298;9.056;2023-02-13T01:19:26;9.00;92.00
47590;DHT22;33316;52.298;9.056;2023-02-13T01:21:53;9.00;92.00
47590;DHT22;33316;52.298;9.056;2023-02-13T01:24:25;9.00;92.00
47590;DHT22;33316;52.298;9.056;2023-02-13T01:26:54;9.00;92.00
47590;DHT22;33316;52.298;9.056;2023-02-13T01:29:22;9.00;92.00
47590;DHT22;33316;52.298;9.056;2023-02-13T01:31:53;9.00;92.00
47590;DHT22;33316;52.298;9.056;2023-02-13T01:34:19;8.90;92.00
47590;DHT22;33316;52.298;9.056;2023-02-13T01:36:46;8.90;92.00
47590;DHT22;33316;52.298;9.056;2023-02-13T01:39:15;9.00;92.00
47590;DHT22;33316;52.298;9.056;2023-02-13T01:41:42;8.90;92.00
47590;DHT22;33316;52.298;9.056;2023-02-13T01:44:47;9.00;92.00
47590;DHT22;33316;52.298;9.056;2023-02-13T01:47:23;8.90;92.00
47590;DHT22;33316;52.298;9.056;2023-02-13T01:49:57;9.00;92.00
47590;DHT22;33316;52.298;9.056;2023-02-13T01:52:32;8.90;92.00
47590;DHT22;33316;52.298;9.056;2023-02-13T01:54:59;8.90;92.00
47590;DHT22;33316;52.298;9.056;2023-02-13T01:57:30;8.90;92.00
47590;DHT22;33316;52.298;9.056;2023-02-13T02:00:03;8.90;92.00
47590;DHT22;33316;52.298;9.056;2023-02-13T02:02:44;8.90;92.00
47590;DHT22;33316;52.298;9.056;2023-02-13T02:05:19;8.90;92.00
47590;DHT22;33316;52.298;9.056;2023-02-13T02:07:47;8.90;91.90
47590;DHT22;33316;52.298;9.056;2023-02-13T02:10:17;8.90;91.90
47590;DHT22;33316;52.298;9.056;2023-02-13T02:12:48;8.90;92.00
47590;DHT22;33316;52.298;9.056;2023-02-13T02:15:18;8.90;92.00
47590;DHT22;33316;52.298;9.056;2023-02-13T02:17:50;8.90;91.90
47590;DHT22;33316;52.298;9.056;2023-02-13T02:20:25;8.80;91.90
47590;DHT22;33316;52.298;9.056;2023-02-13T02:26:06;8.90;91.90
47590;DHT22;33316;52.298;9.056;2023-02-13T02:34:55;8.80;91.80
47590;DHT22;33316;52.298;9.056;2023-02-13T02:37:38;8.80;91.70
47590;DHT22;33316;52.298;9.056;2023-02-13T02:40:15;8.80;91.70
47590;DHT22;33316;52.298;9.056;2023-02-13T02:42:56;8.80;91.70
47590;DHT22;33316;52.298;9.056;2023-02-13T02:45:34;8.80;91.70
47590;DHT22;33316;52.298;9.056;2023-02-13T02:48:08;8.80;91.70
47590;DHT22;33316;52.298;9.056;2023-02-13T02:50:57;8.80;91.70
47590;DHT22;33316;52.298;9.056;2023-02-13T02:53:32;8.80;91.70
47590;DHT22;33316;52.298;9.056;2023-02-13T02:56:06;8.80;91.60
47590;DHT22;33316;52.298;9.056;2023-02-13T02:58:38;8.80;91.60
47590;DHT22;33316;52.298;9.056;2023-02-13T03:01:26;8.80;91.60
47590;DHT22;33316;52.298;9.056;2023-02-13T03:04:17;8.80;91.50
47590;DHT22;33316;52.298;9.056;2023-02-13T03:07:04;8.80;91.50
47590;DHT22;33316;52.298;9.056;2023-02-13T03:09:35;8.80;91.50
47590;DHT22;33316;52.298;9.056;2023-02-13T03:12:23;8.80;91.50
47590;DHT22;33316;52.298;9.056;2023-02-13T03:15:08;8.80;91.50
47590;DHT22;33316;52.298;9.056;2023-02-13T03:17:35;8.80;91.50
47590;DHT22;33316;52.298;9.056;2023-02-13T03:20:29;8.80;91.40
47590;DHT22;33316;52.298;9.056;2023-02-13T03:23:22;8.80;91.40
47590;DHT22;33316;52.298;9.056;2023-02-13T03:26:18;8.80;91.40
47590;DHT22;33316;52.298;9.056;2023-02-13T03:28:55;8.80;91.40
47590;DHT22;33316;52.298;9.056;2023-02-13T03:31:47;8.80;91.40
47590;DHT22;33316;52.298;9.056;2023-02-13T03:34:19;8.80;91.30
47590;DHT22;33316;52.298;9.056;2023-02-13T03:36:50;8.80;91.30
47590;DHT22;33316;52.298;9.056;2023-02-13T03:39:44;8.80;91.30
47590;DHT22;33316;52.298;9.056;2023-02-13T03:42:17;8.80;91.30
47590;DHT22;33316;52.298;9.056;2023-02-13T03:44:50;8.80;91.30
47590;DHT22;33316;52.298;9.056;2023-02-13T03:47:39;8.80;91.30
47590;DHT22;33316;52.298;9.056;2023-02-13T03:50:09;8.80;91.20
47590;DHT22;33316;52.298;9.056;2023-02-13T03:52:42;8.80;91.20
47590;DHT22;33316;52.298;9.056;2023-02-13T03:55:13;8.80;91.20
47590;DHT22;33316;52.298;9.056;2023-02-13T03:58:01;8.80;91.20
47590;DHT22;33316;52.298;9.056;2023-02-13T04:00:48;8.80;91.10
47590;DHT22;33316;52.298;9.056;2023-02-13T04:03:21;8.80;91.10
47590;DHT22;33316;52.298;9.056;2023-02-13T04:05:52;8.80;91.10
47590;DHT22;33316;52.298;9.056;2023-02-13T04:08:21;8.80;91.10
47590;DHT22;33316;52.298;9.056;2023-02-13T04:10:51;8.80;91.10
47590;DHT22;33316;52.298;9.056;2023-02-13T04:13:25;8.80;91.00
47590;DHT22;33316;52.298;9.056;2023-02-13T04:15:56;8.80;91.00
47590;DHT22;33316;52.298;9.056;2023-02-13T04:18:26;8.80;91.00
47590;DHT22;33316;52.298;9.056;2023-02-13T04:20:54;8.80;91.00
47590;DHT22;33316;52.298;9.056;2023-02-13T04:23:22;8.80;90.90
47590;DHT22;33316;52.298;9.056;2023-02-13T04:25:50;8.80;90.90
47590;DHT22;33316;52.298;9.056;2023-02-13T04:28:17;8.80;90.90
47590;DHT22;33316;52.298;9.056;2023-02-13T04:30:44;8.80;90.90
47590;DHT22;33316;52.298;9.056;2023-02-13T04:33:11;8.80;90.90
47590;DHT22;33316;52.298;9.056;2023-02-13T04:35:37;8.80;90.90
47590;DHT22;33316;52.298;9.056;2023-02-13T04:38:04;8.80;90.90
47590;DHT22;33316;52.298;9.056;2023-02-13T04:40:32;8.80;90.90
47590;DHT22;33316;52.298;9.056;2023-02-13T04:42:59;8.80;90.80
47590;DHT22;33316;52.298;9.056;2023-02-13T04:45:26;8.80;90.80
47590;DHT22;33316;52.298;9.056;2023-02-13T04:47:54;8.80;90.80
47590;DHT22;33316;52.298;9.056;2023-02-13T04:50:22;8.80;90.80
47590;DHT22;33316;52.298;9.056;2023-02-13T04:52:52;8.80;90.80
47590;DHT22;33316;52.298;9.056;2023-02-13T04:55:19;8.80;90.80
47590;DHT22;33316;52.298;9.056;2023-02-13T04:57:47;8.80;90.80
47590;DHT22;33316;52.298;9.056;2023-02-13T05:00:14;8.80;90.80
47590;DHT22;33316;52.298;9.056;2023-02-13T05:02:41;8.80;90.80
47590;DHT22;33316;52.298;9.056;2023-02-13T05:05:07;8.80;91.20
47590;DHT22;33316;52.298;9.056;2023-02-13T05:07:34;8.70;90.80
47590;DHT22;33316;52.298;9.056;2023-02-13T05:10:01;8.70;90.80
47590;DHT22;33316;52.298;9.056;2023-02-13T05:12:27;8.70;90.80
47590;DHT22;33316;52.298;9.056;2023-02-13T05:14:55;8.70;90.80
47590;DHT22;33316;52.298;9.056;2023-02-13T05:17:22;8.70;90.80
47590;DHT22;33316;52.298;9.056;2023-02-13T05:19:49;8.70;90.80
47590;DHT22;33316;52.298;9.056;2023-02-13T05:22:15;8.70;90.80
47590;DHT22;33316;52.298;9.056;2023-02-13T05:25:00;8.70;90.90
47590;DHT22;33316;52.298;9.056;2023-02-13T05:27:26;8.60;90.90
47590;DHT22;33316;52.298;9.056;2023-02-13T05:29:53;8.70;91.00
47590;DHT22;33316;52.298;9.056;2023-02-13T05:32:21;8.70;91.00
47590;DHT22;33316;52.298;9.056;2023-02-13T05:34:48;8.60;91.00
47590;DHT22;33316;52.298;9.056;2023-02-13T05:37:14;8.60;91.00
47590;DHT22;33316;52.298;9.056;2023-02-13T05:39:41;8.60;91.10
47590;DHT22;33316;52.298;9.056;2023-02-13T05:42:08;8.60;91.10
47590;DHT22;33316;52.298;9.056;2023-02-13T05:44:35;8.60;91.10
47590;DHT22;33316;52.298;9.056;2023-02-13T05:47:01;8.60;91.10
47590;DHT22;33316;52.298;9.056;2023-02-13T05:49:29;8.60;91.10
47590;DHT22;33316;52.298;9.056;2023-02-13T05:51:56;8.60;91.10
47590;DHT22;33316;52.298;9.056;2023-02-13T05:54:23;8.60;91.10
47590;DHT22;33316;52.298;9.056;2023-02-13T05:56:49;8.60;91.10
47590;DHT22;33316;52.298;9.056;2023-02-13T05:59:16;8.60;91.20
47590;DHT22;33316;52.298;9.056;2023-02-13T06:01:43;8.60;91.20
47590;DHT22;33316;52.298;9.056;2023-02-13T06:04:10;8.60;91.20
47590;DHT22;33316;52.298;9.056;2023-02-13T06:06:38;8.60;91.20
47590;DHT22;33316;52.298;9.056;2023-02-13T06:09:04;8.60;91.20
47590;DHT22;33316;52.298;9.056;2023-02-13T06:11:31;8.60;91.20
47590;DHT22;33316;52.298;9.056;2023-02-13T06:13:58;8.60;91.20
47590;DHT22;33316;52.298;9.056;2023-02-13T06:16:24;8.60;91.20
47590;DHT22;33316;52.298;9.056;2023-02-13T06:18:51;8.60;91.20
47590;DHT22;33316;52.298;9.056;2023-02-13T06:21:17;8.60;91.20
47590;DHT22;33316;52.298;9.056;2023-02-13T06:23:45;8.60;91.20
47590;DHT22;33316;52.298;9.056;2023-02-13T06:26:12;8.60;91.20
47590;DHT22;33316;52.298;9.056;2023-02-13T06:28:39;8.60;91.20
47590;DHT22;33316;52.298;9.056;2023-02-13T06:31:06;8.60;91.30
47590;DHT22;33316;52.298;9.056;2023-02-13T06:33:32;8.60;91.20
47590;DHT22;33316;52.298;9.056;2023-02-13T06:35:59;8.60;91.20
47590;DHT22;33316;52.298;9.056;2023-02-13T06:38:26;8.60;91.40
47590;DHT22;33316;52.298;9.056;2023-02-13T06:40:58;8.60;91.30
47590;DHT22;33316;52.298;9.056;2023-02-13T06:43:26;8.60;91.30
47590;DHT22;33316;52.298;9.056;2023-02-13T06:45:53;8.60;91.30
47590;DHT22;33316;52.298;9.056;2023-02-13T06:48:19;8.60;91.30
47590;DHT22;33316;52.298;9.056;2023-02-13T06:50:46;8.50;91.30
47590;DHT22;33316;52.298;9.056;2023-02-13T06:53:13;8.60;91.30
47590;DHT22;33316;52.298;9.056;2023-02-13T06:55:39;8.50;91.20
47590;DHT22;33316;52.298;9.056;2023-02-13T06:58:07;8.50;91.20
47590;DHT22;33316;52.298;9.056;2023-02-13T07:00:34;8.50;91.20
47590;DHT22;33316;52.298;9.056;2023-02-13T07:03:02;8.50;91.30
47590;DHT22;33316;52.298;9.056;2023-02-13T07:05:30;8.50;91.30
47590;DHT22;33316;52.298;9.056;2023-02-13T07:07:57;8.50;91.30
47590;DHT22;33316;52.298;9.056;2023-02-13T07:10:24;8.50;91.30
47590;DHT22;33316;52.298;9.056;2023-02-13T07:12:50;8.50;91.30
47590;DHT22;33316;52.298;9.056;2023-02-13T07:15:19;8.50;91.30
47590;DHT22;33316;52.298;9.056;2023-02-13T07:17:45;8.50;91.30
47590;DHT22;33316;52.298;9.056;2023-02-13T07:20:12;8.50;91.30
47590;DHT22;33316;52.298;9.056;2023-02-13T07:22:39;8.50;91.30
47590;DHT22;33316;52.298;9.056;2023-02-13T07:25:06;8.50;91.30
47590;DHT22;33316;52.298;9.056;2023-02-13T07:27:33;8.50;91.30
47590;DHT22;33316;52.298;9.056;2023-02-13T07:29:59;8.50;91.30
47590;DHT22;33316;52.298;9.056;2023-02-13T07:32:27;8.50;91.30
47590;DHT22;33316;52.298;9.056;2023-02-13T07:34:54;8.50;91.30
47590;DHT22;33316;52.298;9.056;2023-02-13T07:37:21;8.50;91.30
47590;DHT22;33316;52.298;9.056;2023-02-13T07:39:47;8.50;91.20
47590;DHT22;33316;52.298;9.056;2023-02-13T07:42:14;8.50;91.20
47590;DHT22;33316;52.298;9.056;2023-02-13T07:44:41;8.50;91.20
47590;DHT22;33316;52.298;9.056;2023-02-13T07:47:07;8.50;91.20
47590;DHT22;33316;52.298;9.056;2023-02-13T07:49:35;8.50;91.20
47590;DHT22;33316;52.298;9.056;2023-02-13T07:52:03;8.50;91.10
47590;DHT22;33316;52.298;9.056;2023-02-13T07:54:30;8.50;91.10
47590;DHT22;33316;52.298;9.056;2023-02-13T07:56:56;8.60;91.10
47590;DHT22;33316;52.298;9.056;2023-02-13T07:59:23;8.60;91.10
47590;DHT22;33316;52.298;9.056;2023-02-13T08:01:50;8.60;91.10
47590;DHT22;33316;52.298;9.056;2023-02-13T08:04:17;8.60;91.10
47590;DHT22;33316;52.298;9.056;2023-02-13T08:06:45;8.60;91.10
47590;DHT22;33316;52.298;9.056;2023-02-13T08:09:17;8.60;91.10
47590;DHT22;33316;52.298;9.056;2023-02-13T08:12:03;8.60;91.10
47590;DHT22;33316;52.298;9.056;2023-02-13T08:14:30;8.60;91.10
47590;DHT22;33316;52.298;9.056;2023-02-13T08:16:58;8.60;91.10
47590;DHT22;33316;52.298;9.056;2023-02-13T08:19:27;8.60;91.10
47590;DHT22;33316;52.298;9.056;2023-02-13T08:21:55;8.60;91.10
47590;DHT22;33316;52.298;9.056;2023-02-13T08:24:22;8.60;91.10
47590;DHT22;33316;52.298;9.056;2023-02-13T08:26:49;8.60;91.10
47590;DHT22;33316;52.298;9.056;2023-02-13T08:29:16;8.60;91.20
47590;DHT22;33316;52.298;9.056;2023-02-13T08:31:43;8.60;91.10
47590;DHT22;33316;52.298;9.056;2023-02-13T08:34:09;8.70;91.10
47590;DHT22;33316;52.298;9.056;2023-02-13T08:36:36;8.70;91.10
47590;DHT22;33316;52.298;9.056;2023-02-13T08:39:04;8.70;91.10
47590;DHT22;33316;52.298;9.056;2023-02-13T08:41:31;8.70;91.10
47590;DHT22;33316;52.298;9.056;2023-02-13T08:43:57;8.70;91.00
47590;DHT22;33316;52.298;9.056;2023-02-13T08:46:24;8.70;91.00
47590;DHT22;33316;52.298;9.056;2023-02-13T08:48:51;8.80;91.00
47590;DHT22;33316;52.298;9.056;2023-02-13T08:51:17;8.80;91.00
47590;DHT22;33316;52.298;9.056;2023-02-13T08:53:44;8.80;90.90
47590;DHT22;33316;52.298;9.056;2023-02-13T08:56:12;8.80;90.90
47590;DHT22;33316;52.298;9.056;2023-02-13T08:58:39;8.80;90.80
47590;DHT22;33316;52.298;9.056;2023-02-13T09:01:06;8.80;90.80
47590;DHT22;33316;52.298;9.056;2023-02-13T09:03:34;8.80;90.80
47590;DHT22;33316;52.298;9.056;2023-02-13T09:06:01;8.80;90.70
47590;DHT22;33316;52.298;9.056;2023-02-13T09:08:28;8.80;90.70
47590;DHT22;33316;52.298;9.056;2023-02-13T09:10:56;8.80;90.70
47590;DHT22;33316;52.298;9.056;2023-02-13T09:13:25;8.90;90.70
47590;DHT22;33316;52.298;9.056;2023-02-13T09:15:52;8.90;90.60
47590;DHT22;33316;52.298;9.056;2023-02-13T09:18:19;8.90;90.60
47590;DHT22;33316;52.298;9.056;2023-02-13T09:20:45;8.90;90.60
47590;DHT22;33316;52.298;9.056;2023-02-13T09:23:12;8.90;90.60
47590;DHT22;33316;52.298;9.056;2023-02-13T09:25:39;8.90;90.60
47590;DHT22;33316;52.298;9.056;2023-02-13T09:28:05;9.00;90.60
47590;DHT22;33316;52.298;9.056;2023-02-13T09:30:33;9.00;90.60
47590;DHT22;33316;52.298;9.056;2023-02-13T09:33:00;9.00;90.60
47590;DHT22;33316;52.298;9.056;2023-02-13T09:35:26;9.00;90.50
47590;DHT22;33316;52.298;9.056;2023-02-13T09:37:54;9.10;90.60
47590;DHT22;33316;52.298;9.056;2023-02-13T09:40:27;9.10;90.50
47590;DHT22;33316;52.298;9.056;2023-02-13T09:43:03;9.10;90.50
47590;DHT22;33316;52.298;9.056;2023-02-13T09:45:30;9.10;90.40
47590;DHT22;33316;52.298;9.056;2023-02-13T09:47:59;9.10;90.30
47590;DHT22;33316;52.298;9.056;2023-02-13T09:50:28;9.10;90.30
47590;DHT22;33316;52.298;9.056;2023-02-13T09:52:58;9.10;90.20
47590;DHT22;33316;52.298;9.056;2023-02-13T09:55:29;9.20;90.20
47590;DHT22;33316;52.298;9.056;2023-02-13T09:58:08;9.20;90.20
47590;DHT22;33316;52.298;9.056;2023-02-13T10:00:38;9.20;90.20
47590;DHT22;33316;52.298;9.056;2023-02-13T10:03:20;9.20;90.20
47590;DHT22;33316;52.298;9.056;2023-02-13T10:06:04;9.30;90.20
47590;DHT22;33316;52.298;9.056;2023-02-13T10:08:57;9.30;90.10
47590;DHT22;33316;52.298;9.056;2023-02-13T10:15:02;9.40;90.10
47590;DHT22;33316;52.298;9.056;2023-02-13T10:17:33;9.40;90.00
47590;DHT22;33316;52.298;9.056;2023-02-13T10:20:06;9.40;90.00
47590;DHT22;33316;52.298;9.056;2023-02-13T10:22:37;9.40;89.90
47590;DHT22;33316;52.298;9.056;2023-02-13T10:25:15;9.40;89.80
47590;DHT22;33316;52.298;9.056;2023-02-13T10:27:44;9.50;89.70
47590;DHT22;33316;52.298;9.056;2023-02-13T10:30:17;9.50;89.70
47590;DHT22;33316;52.298;9.056;2023-02-13T10:32:56;9.50;89.70
47590;DHT22;33316;52.298;9.056;2023-02-13T10:35:40;9.50;89.60
47590;DHT22;33316;52.298;9.056;2023-02-13T10:38:15;9.60;89.60
47590;DHT22;33316;52.298;9.056;2023-02-13T10:41:14;9.60;89.40
47590;DHT22;33316;52.298;9.056;2023-02-13T10:43:55;9.60;89.30
47590;DHT22;33316;52.298;9.056;2023-02-13T10:46:32;9.70;90.00
47590;DHT22;33316;52.298;9.056;2023-02-13T10:49:11;9.70;89.30
47590;DHT22;33316;52.298;9.056;2023-02-13T10:51:48;9.70;89.20
47590;DHT22;33316;52.298;9.056;2023-02-13T10:54:26;9.70;89.00
47590;DHT22;33316;52.298;9.056;2023-02-13T10:57:01;9.80;88.90
47590;DHT22;33316;52.298;9.056;2023-02-13T10:59:49;9.80;88.70
47590;DHT22;33316;52.298;9.056;2023-02-13T11:02:22;9.80;88.50
47590;DHT22;33316;52.298;9.056;2023-02-13T11:04:52;9.80;88.40
47590;DHT22;33316;52.298;9.056;2023-02-13T11:07:23;9.80;88.00
47590;DHT22;33316;52.298;9.056;2023-02-13T11:09:52;9.90;88.10
47590;DHT22;33316;52.298;9.056;2023-02-13T11:12:26;9.90;88.00
47590;DHT22;33316;52.298;9.056;2023-02-13T11:14:54;9.90;88.00
47590;DHT22;33316;52.298;9.056;2023-02-13T11:17:23;10.00;87.90
47590;DHT22;33316;52.298;9.056;2023-02-13T11:19:52;10.00;87.80
47590;DHT22;33316;52.298;9.056;2023-02-13T11:22:29;10.00;87.50
47590;DHT22;33316;52.298;9.056;2023-02-13T11:25:00;10.00;87.20
47590;DHT22;33316;52.298;9.056;2023-02-13T11:27:32;10.00;87.30
47590;DHT22;33316;52.298;9.056;2023-02-13T11:30:01;10.10;87.30
47590;DHT22;33316;52.298;9.056;2023-02-13T11:32:28;10.10;87.20
47590;DHT22;33316;52.298;9.056;2023-02-13T11:34:55;10.10;86.90
47590;DHT22;33316;52.298;9.056;2023-02-13T11:37:25;10.10;86.60
47590;DHT22;33316;52.298;9.056;2023-02-13T11:39:55;10.10;86.60
47590;DHT22;33316;52.298;9.056;2023-02-13T11:42:30;10.20;86.60
47590;DHT22;33316;52.298;9.056;2023-02-13T11:44:59;10.20;86.40
47590;DHT22;33316;52.298;9.056;2023-02-13T11:47:38;10.20;87.10
47590;DHT22;33316;52.298;9.056;2023-02-13T11:50:18;10.30;87.10
47590;DHT22;33316;52.298;9.056;2023-02-13T11:52:52;10.30;86.40
47590;DHT22;33316;52.298;9.056;2023-02-13T11:55:32;10.30;86.20
47590;DHT22;33316;52.298;9.056;2023-02-13T11:58:00;10.30;86.10
47590;DHT22;33316;52.298;9.056;2023-02-13T12:00:33;10.30;86.20
47590;DHT22;33316;52.298;9.056;2023-02-13T12:03:25;10.40;85.90
47590;DHT22;33316;52.298;9.056;2023-02-13T12:06:00;10.30;85.60
47590;DHT22;33316;52.298;9.056;2023-02-13T12:08:28;10.40;85.70
47590;DHT22;33316;52.298;9.056;2023-02-13T12:10:57;10.40;85.60
47590;DHT22;33316;52.298;9.056;2023-02-13T12:13:30;10.40;85.30
47590;DHT22;33316;52.298;9.056;2023-02-13T12:16:01;10.40;85.50
47590;DHT22;33316;52.298;9.056;2023-02-13T12:18:31;10.40;85.40
47590;DHT22;33316;52.298;9.056;2023-02-13T12:21:03;10.40;85.40
47590;DHT22;33316;52.298;9.056;2023-02-13T12:23:37;10.40;85.10
47590;DHT22;33316;52.298;9.056;2023-02-13T12:26:16;10.50;85.00
47590;DHT22;33316;52.298;9.056;2023-02-13T12:29:03;10.50;85.10
47590;DHT22;33316;52.298;9.056;2023-02-13T12:31:45;10.50;84.70
47590;DHT22;33316;52.298;9.056;2023-02-13T12:37:51;10.50;84.40
47590;DHT22;33316;52.298;9.056;2023-02-13T12:43:39;10.50;83.90
47590;DHT22;33316;52.298;9.056;2023-02-13T12:46:16;10.50;83.70
47590;DHT22;33316;52.298;9.056;2023-02-13T12:48:53;10.50;83.70
47590;DHT22;33316;52.298;9.056;2023-02-13T12:51:38;10.50;83.40
47590;DHT22;33316;52.298;9.056;2023-02-13T12:54:26;10.50;82.90
47590;DHT22;33316;52.298;9.056;2023-02-13T12:57:05;10.50;83.00
47590;DHT22;33316;52.298;9.056;2023-02-13T12:59:45;10.50;82.70
47590;DHT22;33316;52.298;9.056;2023-02-13T13:05:30;10.50;82.90
47590;DHT22;33316;52.298;9.056;2023-02-13T13:08:14;10.50;83.10
47590;DHT22;33316;52.298;9.056;2023-02-13T13:10:53;10.50;83.20
47590;DHT22;33316;52.298;9.056;2023-02-13T13:13:39;10.50;83.20
47590;DHT22;33316;52.298;9.056;2023-02-13T13:16:17;10.50;83.00
47590;DHT22;33316;52.298;9.056;2023-02-13T13:18:53;10.50;83.00
47590;DHT22;33316;52.298;9.056;2023-02-13T13:21:32;10.50;83.00
47590;DHT22;33316;52.298;9.056;2023-02-13T13:24:06;10.50;82.70
47590;DHT22;33316;52.298;9.056;2023-02-13T13:26:39;10.50;82.70
47590;DHT22;33316;52.298;9.056;2023-02-13T13:29:11;10.50;82.80
47590;DHT22;33316;52.298;9.056;2023-02-13T13:31:43;10.50;82.80
47590;DHT22;33316;52.298;9.056;2023-02-13T13:34:18;10.50;82.80
47590;DHT22;33316;52.298;9.056;2023-02-13T13:36:49;10.50;82.30
47590;DHT22;33316;52.298;9.056;2023-02-13T13:39:26;10.50;82.40
47590;DHT22;33316;52.298;9.056;2023-02-13T13:42:05;10.50;82.40
47590;DHT22;33316;52.298;9.056;2023-02-13T13:44:57;10.50;82.30
47590;DHT22;33316;52.298;9.056;2023-02-13T13:50:22;10.50;82.10
47590;DHT22;33316;52.298;9.056;2023-02-13T13:53:10;10.40;82.10
47590;DHT22;33316;52.298;9.056;2023-02-13T13:56:05;10.40;82.10
47590;DHT22;33316;52.298;9.056;2023-02-13T13:58:39;10.40;82.10
47590;DHT22;33316;52.298;9.056;2023-02-13T14:01:17;10.40;82.60
47590;DHT22;33316;52.298;9.056;2023-02-13T14:03:46;10.40;82.40
47590;DHT22;33316;52.298;9.056;2023-02-13T14:06:15;10.40;82.50
47590;DHT22;33316;52.298;9.056;2023-02-13T14:09:08;10.40;82.40
47590;DHT22;33316;52.298;9.056;2023-02-13T14:11:55;10.40;82.20
47590;DHT22;33316;52.298;9.056;2023-02-13T14:14:49;10.30;82.30
47590;DHT22;33316;52.298;9.056;2023-02-13T14:17:53;10.30;82.30
47590;DHT22;33316;52.298;9.056;2023-02-13T14:20:30;10.30;82.30
47590;DHT22;33316;52.298;9.056;2023-02-13T14:23:06;10.30;82.30
47590;DHT22;33316;52.298;9.056;2023-02-13T14:25:33;10.30;82.30
47590;DHT22;33316;52.298;9.056;2023-02-13T14:28:03;10.30;82.40
47590;DHT22;33316;52.298;9.056;2023-02-13T14:30:32;10.40;82.40
47590;DHT22;33316;52.298;9.056;2023-02-13T14:33:03;10.40;82.50
47590;DHT22;33316;52.298;9.056;2023-02-13T14:35:32;10.30;82.20
47590;DHT22;33316;52.298;9.056;2023-02-13T14:38:02;10.40;82.20
47590;DHT22;33316;52.298;9.056;2023-02-13T14:40:46;10.30;82.10
47590;DHT22;33316;52.298;9.056;2023-02-13T14:43:28;10.40;82.20
47590;DHT22;33316;52.298;9.056;2023-02-13T14:45:57;10.40;82.00
47590;DHT22;33316;52.298;9.056;2023-02-13T14:48:34;10.40;82.00
47590;DHT22;33316;52.298;9.056;2023-02-13T14:51:02;10.40;82.10
47590;DHT22;33316;52.298;9.056;2023-02-13T14:53:34;10.40;82.20
47590;DHT22;33316;52.298;9.056;2023-02-13T14:56:14;10.40;82.00
47590;DHT22;33316;52.298;9.056;2023-02-13T14:58:50;10.40;82.20
47590;DHT22;33316;52.298;9.056;2023-02-13T15:01:24;10.40;82.20
47590;DHT22;33316;52.298;9.056;2023-02-13T15:03:57;10.40;82.20
47590;DHT22;33316;52.298;9.056;2023-02-13T15:06:33;10.40;82.10
47590;DHT22;33316;52.298;9.056;2023-02-13T15:09:04;10.40;82.00
47590;DHT22;33316;52.298;9.056;2023-02-13T15:11:35;10.40;81.90
47590;DHT22;33316;52.298;9.056;2023-02-13T15:14:34;10.40;81.90
47590;DHT22;33316;52.298;9.056;2023-02-13T15:17:05;10.40;81.60
47590;DHT22;33316;52.298;9.056;2023-02-13T15:19:35;10.40;81.90
47590;DHT22;33316;52.298;9.056;2023-02-13T15:22:04;10.40;81.80
47590;DHT22;33316;52.298;9.056;2023-02-13T15:24:36;10.40;81.70
47590;DHT22;33316;52.298;9.056;2023-02-13T15:27:05;10.40;81.70
47590;DHT22;33316;52.298;9.056;2023-02-13T15:29:34;10.40;82.40
47590;DHT22;33316;52.298;9.056;2023-02-13T15:32:16;10.40;81.70
47590;DHT22;33316;52.298;9.056;2023-02-13T15:34:46;10.30;81.60
47590;DHT22;33316;52.298;9.056;2023-02-13T15:37:20;10.30;81.70
47590;DHT22;33316;52.298;9.056;2023-02-13T15:39:46;10.30;81.70
47590;DHT22;33316;52.298;9.056;2023-02-13T15:42:13;10.30;81.70
47590;DHT22;33316;52.298;9.056;2023-02-13T15:44:44;10.30;81.70
47590;DHT22;33316;52.298;9.056;2023-02-13T15:47:16;10.20;81.80
47590;DHT22;33316;52.298;9.056;2023-02-13T15:49:46;10.30;81.90
47590;DHT22;33316;52.298;9.056;2023-02-13T15:52:18;10.20;81.70
47590;DHT22;33316;52.298;9.056;2023-02-13T15:54:49;10.20;81.70
47590;DHT22;33316;52.298;9.056;2023-02-13T15:57:16;10.20;81.80
47590;DHT22;33316;52.298;9.056;2023-02-13T15:59:45;10.10;81.50
47590;DHT22;33316;52.298;9.056;2023-02-13T16:02:16;10.10;81.80
47590;DHT22;33316;52.298;9.056;2023-02-13T16:04:44;10.10;81.80
47590;DHT22;33316;52.298;9.056;2023-02-13T16:07:13;10.00;81.90
47590;DHT22;33316;52.298;9.056;2023-02-13T16:09:39;10.00;82.00
47590;DHT22;33316;52.298;9.056;2023-02-13T16:12:17;10.00;82.10
47590;DHT22;33316;52.298;9.056;2023-02-13T16:14:50;9.90;82.00
47590;DHT22;33316;52.298;9.056;2023-02-13T16:17:25;9.90;82.20
47590;DHT22;33316;52.298;9.056;2023-02-13T16:19:58;9.80;82.20
47590;DHT22;33316;52.298;9.056;2023-02-13T16:22:32;9.90;82.40
47590;DHT22;33316;52.298;9.056;2023-02-13T16:25:13;9.80;82.40
47590;DHT22;33316;52.298;9.056;2023-02-13T16:27:43;9.80;82.40
47590;DHT22;33316;52.298;9.056;2023-02-13T16:30:26;9.70;82.40
47590;DHT22;33316;52.298;9.056;2023-02-13T16:35:54;9.60;82.40
47590;DHT22;33316;52.298;9.056;2023-02-13T16:38:33;9.60;82.60
47590;DHT22;33316;52.298;9.056;2023-02-13T16:41:01;9.60;82.60
47590;DHT22;33316;52.298;9.056;2023-02-13T16:43:42;9.50;82.70
47590;DHT22;33316;52.298;9.056;2023-02-13T16:46:19;9.50;82.80